Glen Oaks, New York
Current Conditions -  °F | °C
As of 2:51 PM on Wednesday 17 Dec 2014 (Local Time) from KJFK Reporting Station
Broken Clouds Broken Clouds  
Wind Chill: 53°   Ceiling: 4500
Heat Index: 53°   Visibility: 10mi
Dew Point: 36°   Wind: 15mph
Humidity: 52%   Direction: 280°W
Pressure: 29.82"   Gusts: NA
Location:  40.75°N, 73.71°W
Report Text: KJFK 171951Z 28013KT 10SM BKN045 12/02 A2982 RMK AO2 SLP097 T01170022 $
Loading
Personal Weather Stations






























Interactive Weather Map New forecast layout! Learn more

10-Day Weather Forecast

Advertisements
Track Severe Weather on mobile